Time;durP1;ratioP1;P1;durP2;ratioP2;P2;SDS_P1;SDS_P2;PMS_P1;PMS_P2;Temp;Humidity;BMP_temperature;BMP_pressure;BME280_temperature;BME280_humidity;BME280_pressure;Samples;Min_cycle;Max_cycle;Signal;HPM_P1;HPM_P2
2023/11/15 00:02:04;;;;;;;2.55;1.23;;;12.50;88.40;;;;;;5054497;28;20063;-63
2023/11/15 00:04:30;;;;;;;3.40;1.30;;;12.50;88.50;;;;;;5050236;28;20025;-63
2023/11/15 00:06:55;;;;;;;3.00;1.48;;;12.50;88.40;;;;;;5051789;28;20041;-62
2023/11/15 00:09:21;;;;;;;4.53;1.27;;;12.60;88.60;;;;;;5059072;28;20029;-63
2023/11/15 00:11:50;;;;;;;2.00;1.10;;;12.50;88.40;;;;;;5050006;28;20037;-63
2023/11/15 00:14:16;;;;;;;6.38;1.40;;;12.60;88.40;;;;;;5054479;28;20209;-62
2023/11/15 00:16:42;;;;;;;2.00;1.10;;;12.60;88.50;;;;;;5054251;28;20453;-63
2023/11/15 00:19:07;;;;;;;6.63;1.30;;;12.60;88.40;;;;;;5056417;28;20040;-63
2023/11/15 00:21:34;;;;;;;3.58;1.35;;;12.60;88.40;;;;;;5052132;28;20563;-63
2023/11/15 00:24:00;;;;;;;2.83;1.10;;;12.60;88.50;;;;;;5053747;28;20507;-62
2023/11/15 00:26:29;;;;;;;3.33;1.20;;;12.60;88.50;;;;;;5057793;28;20059;-63
2023/11/15 00:28:55;;;;;;;1.60;0.93;;;12.60;88.50;;;;;;5054702;28;20037;-62
2023/11/15 00:31:21;;;;;;;0.82;0.60;;;12.60;88.50;;;;;;5049059;28;20028;-63
2023/11/15 00:33:47;;;;;;;4.10;1.65;;;12.60;88.40;;;;;;5058114;28;20091;-62
2023/11/15 00:36:12;;;;;;;5.65;1.55;;;12.70;88.30;;;;;;5055003;28;20467;-63
2023/11/15 00:38:39;;;;;;;2.67;1.05;;;12.70;88.20;;;;;;5049118;28;20041;-63
2023/11/15 00:41:06;;;;;;;1.70;0.90;;;12.70;88.20;;;;;;5049263;28;20024;-66
2023/11/15 00:43:32;;;;;;;4.18;1.08;;;12.60;88.20;;;;;;5051999;28;20020;-66
2023/11/15 00:45:58;;;;;;;5.47;1.60;;;12.60;88.30;;;;;;5047823;28;20498;-66
2023/11/15 00:48:24;;;;;;;2.13;0.68;;;12.70;88.30;;;;;;5056723;28;20165;-66
2023/11/15 00:50:50;;;;;;;1.33;0.65;;;12.60;88.20;;;;;;5050186;28;20502;-63
2023/11/15 00:53:16;;;;;;;1.52;1.17;;;12.70;88.20;;;;;;5053034;28;20017;-63
2023/11/15 00:55:42;;;;;;;1.55;1.05;;;12.70;88.10;;;;;;5042128;28;20033;-63
2023/11/15 00:58:09;;;;;;;1.73;1.23;;;12.70;88.10;;;;;;5052667;28;20040;-63
2023/11/15 01:00:44;;;;;;;3.22;0.82;;;12.70;88.00;;;;;;5039590;28;20034;-63
2023/11/15 01:03:10;;;;;;;2.33;0.98;;;12.70;87.90;;;;;;5052969;28;20040;-66
2023/11/15 01:05:36;;;;;;;2.17;1.13;;;12.70;87.90;;;;;;5052527;28;20144;-66
2023/11/15 01:08:04;;;;;;;1.05;0.90;;;12.70;87.90;;;;;;5060262;28;20040;-66
2023/11/15 01:10:31;;;;;;;2.55;1.48;;;12.70;88.10;;;;;;5053156;28;20465;-66
2023/11/15 01:13:00;;;;;;;1.45;0.60;;;12.70;88.10;;;;;;5053594;28;20078;-66
2023/11/15 01:15:26;;;;;;;1.55;0.70;;;12.70;88.00;;;;;;5058910;28;20056;-66
2023/11/15 01:17:53;;;;;;;1.90;0.52;;;12.60;88.10;;;;;;5059524;28;20494;-66
2023/11/15 01:20:19;;;;;;;1.15;0.60;;;12.60;88.00;;;;;;5050740;28;20061;-66
2023/11/15 01:22:45;;;;;;;3.45;0.70;;;12.60;88.00;;;;;;5053255;28;20110;-62
2023/11/15 01:25:12;;;;;;;1.95;0.55;;;12.60;88.00;;;;;;5044904;28;20806;-62
2023/11/15 01:27:38;;;;;;;1.40;0.55;;;12.70;88.10;;;;;;5055963;28;20055;-63
2023/11/15 01:30:04;;;;;;;2.20;0.65;;;12.60;87.90;;;;;;5056294;28;20028;-66
2023/11/15 01:32:31;;;;;;;2.25;0.50;;;12.60;87.70;;;;;;5054183;28;20048;-66
2023/11/15 01:34:56;;;;;;;1.00;0.50;;;12.60;87.80;;;;;;5054211;28;20083;-66
2023/11/15 01:37:22;;;;;;;2.38;0.80;;;12.60;87.80;;;;;;5035082;28;20041;-63
2023/11/15 01:39:48;;;;;;;0.30;0.30;;;12.50;87.70;;;;;;5045988;28;20048;-63
2023/11/15 01:42:13;;;;;;;0.20;0.20;;;12.50;87.60;;;;;;5049166;28;20021;-63
2023/11/15 01:44:39;;;;;;;0.90;0.57;;;12.50;87.50;;;;;;5050696;28;20041;-63
2023/11/15 01:47:05;;;;;;;0.32;0.25;;;12.50;87.10;;;;;;5051785;28;20547;-63
2023/11/15 01:49:31;;;;;;;0.40;0.35;;;12.40;87.30;;;;;;5052474;28;20468;-63
2023/11/15 01:51:57;;;;;;;0.20;0.20;;;12.40;87.20;;;;;;5047303;28;20124;-63
2023/11/15 01:54:23;;;;;;;0.20;0.20;;;12.40;87.30;;;;;;5059724;28;20028;-63
2023/11/15 01:56:49;;;;;;;1.20;0.25;;;12.30;87.30;;;;;;5049174;28;20558;-63
2023/11/15 01:59:16;;;;;;;0.20;0.20;;;12.40;87.30;;;;;;5056250;28;20083;-63
2023/11/15 02:01:42;;;;;;;1.05;0.30;;;12.30;87.20;;;;;;5042263;28;20067;-63
2023/11/15 02:04:10;;;;;;;0.45;0.32;;;12.30;87.20;;;;;;5052853;28;20044;-63
2023/11/15 02:06:37;;;;;;;0.22;0.22;;;12.30;87.40;;;;;;5057611;28;20597;-63
2023/11/15 02:09:05;;;;;;;1.85;0.55;;;12.20;87.50;;;;;;5059491;28;20047;-62
2023/11/15 02:11:30;;;;;;;0.30;0.20;;;12.30;87.50;;;;;;5041774;28;20057;-63
2023/11/15 02:13:56;;;;;;;3.95;0.32;;;12.30;87.50;;;;;;5064972;28;20055;-63
2023/11/15 02:16:22;;;;;;;0.22;0.20;;;12.30;87.30;;;;;;5059547;28;20029;-63
2023/11/15 02:18:49;;;;;;;0.50;0.40;;;12.30;87.20;;;;;;5056075;28;20079;-62
2023/11/15 02:21:15;;;;;;;0.50;0.50;;;12.30;87.30;;;;;;5053691;28;20119;-62
2023/11/15 02:23:44;;;;;;;1.50;0.20;;;12.30;87.20;;;;;;5050417;28;20029;-63
2023/11/15 02:26:10;;;;;;;0.25;0.25;;;12.20;87.30;;;;;;5057074;28;20046;-62
2023/11/15 02:28:36;;;;;;;0.52;0.20;;;12.20;87.30;;;;;;5055902;28;20037;-63
2023/11/15 02:31:03;;;;;;;0.10;0.10;;;12.20;87.20;;;;;;5055319;28;20525;-63
2023/11/15 02:33:29;;;;;;;0.20;0.20;;;12.30;87.20;;;;;;5042287;28;20029;-63
2023/11/15 02:35:54;;;;;;;0.47;0.30;;;12.30;87.20;;;;;;5056191;28;20037;-63
2023/11/15 02:38:20;;;;;;;1.05;0.50;;;12.30;87.10;;;;;;5054078;28;20450;-63
2023/11/15 02:40:46;;;;;;;1.10;0.28;;;12.20;87.10;;;;;;5048301;28;20027;-63
2023/11/15 02:43:13;;;;;;;0.30;0.30;;;12.30;87.20;;;;;;5048936;28;20131;-63
2023/11/15 02:45:39;;;;;;;0.32;0.30;;;12.30;87.10;;;;;;5051655;28;20051;-63
2023/11/15 02:48:05;;;;;;;0.60;0.30;;;12.30;87.00;;;;;;5049868;28;20109;-63
2023/11/15 02:50:31;;;;;;;0.20;0.20;;;12.30;87.00;;;;;;5057293;28;20033;-63
2023/11/15 02:52:57;;;;;;;0.98;0.32;;;12.30;87.00;;;;;;5052017;28;20025;-63
2023/11/15 02:55:23;;;;;;;0.55;0.52;;;12.40;87.00;;;;;;5052565;28;20163;-66
2023/11/15 02:57:49;;;;;;;1.05;0.60;;;12.30;86.90;;;;;;5047373;28;20120;-66
2023/11/15 03:00:16;;;;;;;0.82;0.38;;;12.40;87.00;;;;;;5048979;28;20029;-65
2023/11/15 03:02:42;;;;;;;0.20;0.20;;;12.40;87.10;;;;;;5054406;28;20047;-66
2023/11/15 03:05:10;;;;;;;0.40;0.40;;;12.30;87.10;;;;;;5053510;28;20060;-65
2023/11/15 03:07:35;;;;;;;1.48;0.38;;;12.30;87.10;;;;;;5058882;28;20104;-66
2023/11/15 03:10:01;;;;;;;1.75;0.60;;;12.30;87.20;;;;;;5051413;28;20205;-66
2023/11/15 03:12:27;;;;;;;0.30;0.30;;;12.30;87.20;;;;;;5051355;28;20104;-66
2023/11/15 03:14:53;;;;;;;4.97;0.73;;;12.30;87.20;;;;;;5056149;28;20040;-66
2023/11/15 03:17:19;;;;;;;1.08;0.68;;;12.30;87.20;;;;;;5057469;28;20029;-66
2023/11/15 03:19:45;;;;;;;1.00;0.80;;;12.30;87.30;;;;;;5046287;28;20033;-66
2023/11/15 03:22:14;;;;;;;2.35;0.57;;;12.30;87.40;;;;;;5059822;28;20032;-66
2023/11/15 03:24:40;;;;;;;1.58;0.90;;;12.30;87.50;;;;;;5059836;28;20036;-66
2023/11/15 03:27:06;;;;;;;1.85;0.93;;;12.30;87.70;;;;;;5057655;28;20364;-66
2023/11/15 03:29:32;;;;;;;4.32;1.13;;;12.30;87.70;;;;;;5054601;28;20036;-67
2023/11/15 03:31:58;;;;;;;1.65;0.95;;;12.30;87.80;;;;;;5058304;28;20029;-67
2023/11/15 03:34:24;;;;;;;3.55;1.10;;;12.30;87.90;;;;;;5058130;28;20037;-67
2023/11/15 03:36:50;;;;;;;3.08;1.00;;;12.30;88.20;;;;;;5051350;28;20047;-63
2023/11/15 03:39:17;;;;;;;1.33;0.73;;;12.30;88.30;;;;;;5049555;28;20036;-63
2023/11/15 03:41:43;;;;;;;1.70;0.55;;;12.40;88.40;;;;;;5046026;28;20499;-63
2023/11/15 03:44:10;;;;;;;2.13;1.38;;;12.40;88.30;;;;;;5052912;28;20032;-63
2023/11/15 03:46:35;;;;;;;9.90;1.75;;;12.40;88.20;;;;;;5063319;28;20050;-67
2023/11/15 03:49:01;;;;;;;1.77;1.05;;;12.40;88.20;;;;;;5049188;28;20033;-67
2023/11/15 03:51:26;;;;;;;1.17;0.98;;;12.40;88.70;;;;;;5052515;28;20480;-66
2023/11/15 03:53:52;;;;;;;4.60;1.48;;;12.40;88.70;;;;;;5059408;28;20075;-67
2023/11/15 03:56:18;;;;;;;1.10;1.00;;;12.40;88.90;;;;;;5042552;28;20104;-67
2023/11/15 03:58:44;;;;;;;4.07;1.10;;;12.40;89.10;;;;;;5055217;28;20483;-66
2023/11/15 04:01:09;;;;;;;3.53;1.05;;;12.40;89.10;;;;;;5055576;28;20033;-67
2023/11/15 04:03:35;;;;;;;6.03;1.38;;;12.40;89.10;;;;;;5054121;28;20029;-66
2023/11/15 04:06:03;;;;;;;2.53;1.30;;;12.50;89.10;;;;;;5059396;28;20055;-67
2023/11/15 04:08:29;;;;;;;2.95;1.67;;;12.50;89.10;;;;;;5064920;28;20029;-66
2023/11/15 04:10:55;;;;;;;1.52;1.20;;;12.50;89.20;;;;;;5060755;28;20052;-67
2023/11/15 04:13:21;;;;;;;3.92;1.88;;;12.40;89.20;;;;;;5059771;28;20386;-66
2023/11/15 04:15:51;;;;;;;3.70;1.80;;;12.40;89.30;;;;;;5040199;28;20037;-66
2023/11/15 04:18:17;;;;;;;7.90;2.35;;;12.50;89.30;;;;;;5057182;28;20044;-67
2023/11/15 04:20:42;;;;;;;5.82;1.65;;;12.50;89.20;;;;;;5050698;28;20027;-67
2023/11/15 04:23:08;;;;;;;7.07;1.50;;;12.50;89.10;;;;;;5038153;28;20490;-67
2023/11/15 04:25:34;;;;;;;5.22;1.85;;;12.50;89.10;;;;;;5052460;28;20492;-67
2023/11/15 04:28:00;;;;;;;5.97;1.00;;;12.50;89.10;;;;;;5055906;28;20396;-66
2023/11/15 04:30:29;;;;;;;3.72;1.55;;;12.50;89.10;;;;;;5045441;28;20051;-67
2023/11/15 04:32:54;;;;;;;6.32;2.25;;;12.60;89.30;;;;;;5052631;28;20025;-67
2023/11/15 04:35:20;;;;;;;11.30;1.85;;;12.50;89.30;;;;;;5053307;28;20517;-66
2023/11/15 04:37:46;;;;;;;2.92;1.45;;;12.50;89.30;;;;;;5051959;28;20032;-67
2023/11/15 04:40:11;;;;;;;3.40;1.17;;;12.60;89.40;;;;;;5051106;28;20116;-67
2023/11/15 04:42:38;;;;;;;3.33;1.40;;;12.60;89.40;;;;;;5051494;28;20148;-67
2023/11/15 04:45:05;;;;;;;6.43;1.58;;;12.50;89.40;;;;;;5047222;28;20519;-67
2023/11/15 04:47:31;;;;;;;3.00;1.00;;;12.50;89.50;;;;;;5049932;28;20472;-66
2023/11/15 04:49:57;;;;;;;3.20;1.50;;;12.50;89.50;;;;;;5051935;28;20476;-67
2023/11/15 04:52:22;;;;;;;8.07;1.10;;;12.60;89.40;;;;;;5048956;28;20066;-63
2023/11/15 04:54:48;;;;;;;2.53;0.95;;;12.60;89.30;;;;;;5049673;28;20036;-63
2023/11/15 04:57:16;;;;;;;2.63;1.42;;;12.60;89.30;;;;;;5047219;28;20037;-63
2023/11/15 04:59:42;;;;;;;7.20;1.77;;;12.60;89.30;;;;;;5038755;28;20064;-63
2023/11/15 05:02:07;;;;;;;3.53;1.20;;;12.50;89.40;;;;;;5049589;28;20048;-63
2023/11/15 05:04:33;;;;;;;9.30;1.83;;;12.50;89.50;;;;;;5049962;28;20076;-63
2023/11/15 05:06:59;;;;;;;2.08;0.80;;;12.50;89.40;;;;;;5040232;28;20045;-63
2023/11/15 05:09:27;;;;;;;2.50;1.00;;;12.60;89.30;;;;;;5054175;28;20053;-63
2023/11/15 05:11:52;;;;;;;4.65;1.55;;;12.60;89.30;;;;;;5052523;28;20037;-63
2023/11/15 05:14:18;;;;;;;5.28;0.90;;;12.60;89.20;;;;;;5050514;28;20048;-67
2023/11/15 05:16:44;;;;;;;1.60;0.60;;;12.60;89.10;;;;;;5050344;28;20117;-67
2023/11/15 05:19:09;;;;;;;4.75;1.13;;;12.60;89.10;;;;;;5059695;28;20031;-67
2023/11/15 05:21:35;;;;;;;5.90;1.50;;;12.70;89.10;;;;;;5058818;28;20029;-67
2023/11/15 05:24:01;;;;;;;3.13;1.20;;;12.60;89.00;;;;;;5049912;28;20029;-67
2023/11/15 05:26:27;;;;;;;3.00;1.55;;;12.60;89.00;;;;;;5053884;28;20036;-67
2023/11/15 05:28:52;;;;;;;2.60;1.45;;;12.60;89.00;;;;;;5044490;28;20029;-67
2023/11/15 05:31:18;;;;;;;1.40;1.00;;;12.50;89.10;;;;;;5053643;28;20020;-66
2023/11/15 05:33:45;;;;;;;12.68;2.40;;;12.60;89.30;;;;;;5052981;28;20048;-67
2023/11/15 05:36:10;;;;;;;3.78;1.48;;;12.50;89.50;;;;;;5055528;28;20035;-66
2023/11/15 05:38:36;;;;;;;0.98;0.70;;;12.50;89.60;;;;;;5059328;28;20028;-66
2023/11/15 05:41:03;;;;;;;4.30;1.42;;;12.50;89.60;;;;;;5045777;28;20048;-63
2023/11/15 05:43:29;;;;;;;4.50;1.75;;;12.50;89.50;;;;;;5047154;28;20056;-63
2023/11/15 05:45:55;;;;;;;5.93;1.25;;;12.50;89.40;;;;;;5041835;28;20495;-62
2023/11/15 05:48:20;;;;;;;1.38;1.15;;;12.50;89.60;;;;;;5053384;28;20021;-63
2023/11/15 05:50:46;;;;;;;3.67;1.67;;;12.60;89.60;;;;;;5052747;28;20158;-63
2023/11/15 05:53:12;;;;;;;4.13;1.13;;;12.60;89.50;;;;;;5059330;28;20093;-63
2023/11/15 05:55:39;;;;;;;6.43;1.27;;;12.60;89.40;;;;;;5057969;28;20358;-65
2023/11/15 05:58:05;;;;;;;6.57;1.25;;;12.60;89.30;;;;;;5048675;28;20113;-67
2023/11/15 06:00:31;;;;;;;2.55;1.10;;;12.60;89.30;;;;;;5046735;28;20424;-63
2023/11/15 06:02:57;;;;;;;3.78;1.45;;;12.70;89.40;;;;;;5049877;28;20029;-63
2023/11/15 06:05:24;;;;;;;3.25;1.10;;;12.70;89.30;;;;;;5053248;28;20078;-63
2023/11/15 06:07:50;;;;;;;3.50;0.68;;;12.70;89.30;;;;;;5055287;28;20539;-63
2023/11/15 06:10:16;;;;;;;3.03;1.30;;;12.70;89.30;;;;;;5050341;28;20163;-64
2023/11/15 06:12:42;;;;;;;3.35;0.98;;;12.80;89.20;;;;;;5058839;28;20021;-63
2023/11/15 06:15:09;;;;;;;2.67;1.33;;;12.80;89.00;;;;;;5048808;28;20040;-63
2023/11/15 06:17:35;;;;;;;2.03;1.15;;;12.80;89.00;;;;;;5053045;28;20032;-67
2023/11/15 06:20:02;;;;;;;5.22;1.75;;;12.80;89.10;;;;;;5056521;28;20078;-66
2023/11/15 06:22:28;;;;;;;3.50;1.83;;;12.70;89.10;;;;;;5061294;28;20021;-67
2023/11/15 06:24:53;;;;;;;4.25;1.15;;;12.70;89.10;;;;;;5085107;28;20075;-67
2023/11/15 06:27:20;;;;;;;4.82;1.42;;;12.80;89.20;;;;;;5061907;28;20065;-66
2023/11/15 06:29:50;;;;;;;7.85;1.70;;;12.70;89.20;;;;;;5057674;28;20013;-67
2023/11/15 06:32:16;;;;;;;2.35;1.38;;;12.70;89.40;;;;;;5054647;28;20021;-67
2023/11/15 06:34:44;;;;;;;3.13;1.42;;;12.70;89.50;;;;;;5060415;28;20363;-66
2023/11/15 06:37:12;;;;;;;5.35;1.10;;;12.70;90.00;;;;;;5053230;28;20423;-67
2023/11/15 06:39:39;;;;;;;9.00;1.77;;;12.70;89.60;;;;;;5050739;28;20636;-63
2023/11/15 06:42:05;;;;;;;2.17;1.33;;;12.70;89.70;;;;;;5056895;28;20040;-63
2023/11/15 06:44:31;;;;;;;5.40;1.98;;;12.60;89.70;;;;;;5057434;28;20396;-64
2023/11/15 06:46:56;;;;;;;3.22;1.33;;;12.70;89.70;;;;;;5055628;28;20029;-63
2023/11/15 06:49:22;;;;;;;6.38;2.33;;;12.70;89.70;;;;;;5052841;28;20173;-63
2023/11/15 06:51:49;;;;;;;3.25;1.55;;;12.70;89.70;;;;;;5054882;28;20021;-62
2023/11/15 06:54:18;;;;;;;3.03;1.77;;;12.60;89.70;;;;;;5052960;28;20024;-62
2023/11/15 06:56:46;;;;;;;9.68;1.58;;;12.60;90.00;;;;;;5054591;28;20028;-66
2023/11/15 06:59:13;;;;;;;5.35;1.27;;;12.60;90.00;;;;;;5055364;28;20028;-66
2023/11/15 07:01:39;;;;;;;5.90;1.77;;;12.50;90.20;;;;;;5043567;28;20115;-62
2023/11/15 07:04:05;;;;;;;2.10;1.23;;;12.60;90.00;;;;;;5052585;28;20131;-65
2023/11/15 07:06:32;;;;;;;5.18;1.80;;;12.50;89.90;;;;;;5050219;28;20157;-62
2023/11/15 07:08:59;;;;;;;15.23;1.70;;;12.60;90.00;;;;;;5052730;28;20029;-62
2023/11/15 07:11:28;;;;;;;3.38;1.33;;;12.60;90.00;;;;;;5046515;28;20031;-62
2023/11/15 07:13:55;;;;;;;2.05;1.35;;;12.60;90.00;;;;;;5068787;28;20022;-62
2023/11/15 07:16:20;;;;;;;4.45;1.85;;;12.60;89.90;;;;;;5049186;28;20029;-63
2023/11/15 07:18:46;;;;;;;9.98;1.08;;;12.60;89.90;;;;;;5052340;28;20041;-62
2023/11/15 07:21:13;;;;;;;12.13;1.70;;;12.70;89.90;;;;;;5049978;28;20025;-62
2023/11/15 07:23:42;;;;;;;8.30;2.05;;;12.60;89.80;;;;;;5052203;28;20037;-63
2023/11/15 07:26:10;;;;;;;1.23;0.93;;;12.60;89.90;;;;;;5053510;28;20515;-63
2023/11/15 07:28:41;;;;;;;2.25;1.65;;;12.60;89.80;;;;;;5052793;28;20052;-63
2023/11/15 07:31:08;;;;;;;3.65;1.20;;;12.70;89.80;;;;;;5048254;28;20038;-62
2023/11/15 07:33:34;;;;;;;5.20;1.05;;;12.70;89.80;;;;;;5046914;28;20032;-65
2023/11/15 07:36:00;;;;;;;7.25;1.88;;;12.60;89.80;;;;;;5047854;28;20032;-65
2023/11/15 07:38:26;;;;;;;4.28;1.08;;;12.50;90.20;;;;;;5051207;28;20039;-65
2023/11/15 07:40:52;;;;;;;2.63;1.00;;;12.50;89.80;;;;;;5050144;28;20499;-62
2023/11/15 07:43:18;;;;;;;2.58;1.45;;;12.50;89.90;;;;;;5043758;28;20068;-62
2023/11/15 07:45:51;;;;;;;1.40;0.80;;;12.50;89.70;;;;;;5050694;28;20029;-62
2023/11/15 07:48:17;;;;;;;0.40;0.40;;;12.40;89.40;;;;;;5051755;28;20043;-62
2023/11/15 07:50:45;;;;;;;0.52;0.52;;;12.40;88.30;;;;;;5059385;28;20383;-62
2023/11/15 07:53:12;;;;;;;0.75;0.60;;;12.30;87.30;;;;;;5051572;28;20029;-62
2023/11/15 07:55:38;;;;;;;0.90;0.77;;;12.20;87.00;;;;;;5052211;28;20101;-62
2023/11/15 07:58:05;;;;;;;1.95;0.80;;;12.20;86.90;;;;;;5048397;28;20027;-62
2023/11/15 08:00:30;;;;;;;0.68;0.47;;;12.20;86.80;;;;;;5053227;28;20399;-62
2023/11/15 08:02:56;;;;;;;2.72;0.60;;;12.20;86.90;;;;;;5043088;28;20041;-65
2023/11/15 08:05:22;;;;;;;2.25;0.90;;;12.20;87.00;;;;;;5051593;28;20482;-65
2023/11/15 08:07:48;;;;;;;3.83;1.80;;;12.20;87.20;;;;;;5055612;28;20495;-65
2023/11/15 08:10:14;;;;;;;0.88;0.80;;;12.20;87.30;;;;;;5054525;28;20052;-62
2023/11/15 08:12:43;;;;;;;3.70;1.58;;;12.20;87.50;;;;;;5052986;28;20032;-63
2023/11/15 08:15:11;;;;;;;4.10;1.63;;;12.20;87.70;;;;;;5056536;28;20028;-63
2023/11/15 08:17:37;;;;;;;3.22;1.42;;;12.20;88.00;;;;;;5054857;28;20033;-63
2023/11/15 08:20:09;;;;;;;6.50;1.40;;;12.30;88.10;;;;;;5055358;28;20144;-62
2023/11/15 08:22:36;;;;;;;2.80;1.52;;;12.40;88.20;;;;;;5048051;28;20026;-62
2023/11/15 08:25:09;;;;;;;3.95;1.13;;;12.30;88.30;;;;;;5050144;28;20029;-64
2023/11/15 08:27:38;;;;;;;;;;;12.40;88.60;;;;;;5056236;28;20029;-63
2023/11/15 08:30:17;;;;;;;2.70;1.20;;;12.40;89.00;;;;;;5052235;28;19913;-63
2023/11/15 08:32:48;;;;;;;0.93;0.90;;;12.30;88.90;;;;;;5047996;28;20483;-63
2023/11/15 08:35:17;;;;;;;15.32;1.45;;;12.40;88.90;;;;;;5054187;28;20029;-63
2023/11/15 08:37:43;;;;;;;4.43;1.63;;;12.40;89.10;;;;;;5047392;28;20025;-63
2023/11/15 08:40:12;;;;;;;7.80;2.22;;;12.40;89.10;;;;;;5055101;28;20051;-64
2023/11/15 08:42:38;;;;;;;4.32;2.03;;;12.40;89.30;;;;;;5056032;28;20033;-64
2023/11/15 08:45:09;;;;;;;2.88;1.33;;;12.50;89.40;;;;;;5055677;28;20056;-62
2023/11/15 08:47:35;;;;;;;3.60;1.80;;;12.60;89.30;;;;;;5048943;28;20551;-63
2023/11/15 08:50:00;;;;;;;3.13;1.75;;;12.60;89.20;;;;;;5049265;28;20105;-63
2023/11/15 08:52:26;;;;;;;2.05;1.20;;;12.60;89.20;;;;;;5052477;28;20033;-63
2023/11/15 08:54:53;;;;;;;2.35;1.40;;;12.60;89.50;;;;;;5046081;28;20659;-62
2023/11/15 08:57:19;;;;;;;6.97;2.28;;;12.60;89.50;;;;;;5055632;28;20039;-62
2023/11/15 08:59:45;;;;;;;7.13;2.13;;;12.70;90.00;;;;;;5049460;28;20088;-62
2023/11/15 09:02:11;;;;;;;4.93;1.50;;;12.70;89.40;;;;;;5048931;28;20478;-62
2023/11/15 09:04:38;;;;;;;9.93;2.72;;;12.80;89.50;;;;;;5045531;28;20034;-62
2023/11/15 09:07:04;;;;;;;3.90;1.88;;;12.90;89.40;;;;;;5051679;28;20560;-63
2023/11/15 09:09:35;;;;;;;5.30;1.27;;;13.00;89.10;;;;;;5055393;28;20108;-63
2023/11/15 09:12:03;;;;;;;5.20;1.85;;;12.90;88.90;;;;;;5051974;28;20086;-62
2023/11/15 09:14:29;;;;;;;4.38;2.30;;;12.90;88.80;;;;;;5054108;28;20048;-63
2023/11/15 09:16:55;;;;;;;10.57;1.92;;;13.00;88.90;;;;;;5059939;28;20037;-63
2023/11/15 09:19:20;;;;;;;5.65;2.30;;;13.00;89.00;;;;;;5044424;28;20824;-63
2023/11/15 09:21:50;;;;;;;1.85;1.25;;;13.00;88.90;;;;;;5029283;28;20033;-63
2023/11/15 09:24:18;;;;;;;4.03;1.27;;;13.20;88.80;;;;;;5037397;28;20021;-63
2023/11/15 09:26:45;;;;;;;3.38;1.08;;;13.40;88.70;;;;;;5029454;28;20067;-63
2023/11/15 09:29:11;;;;;;;2.42;1.20;;;13.50;88.10;;;;;;5034827;28;20025;-63
2023/11/15 09:31:38;;;;;;;5.30;1.80;;;13.60;87.50;;;;;;5044398;28;20040;-63
2023/11/15 09:34:04;;;;;;;5.07;1.20;;;13.70;87.40;;;;;;5047772;28;20056;-63
2023/11/15 09:36:31;;;;;;;5.53;1.65;;;13.70;86.70;;;;;;5037661;28;21266;-62
2023/11/15 09:38:57;;;;;;;4.07;1.13;;;13.60;86.20;;;;;;5038153;28;21547;-63
2023/11/15 09:41:24;;;;;;;3.28;1.08;;;13.40;85.90;;;;;;5033081;28;20352;-62
2023/11/15 09:43:55;;;;;;;4.80;0.80;;;13.40;86.40;;;;;;5043766;28;20033;-66
2023/11/15 09:46:21;;;;;;;5.82;1.55;;;13.30;86.20;;;;;;5044385;28;20585;-66
2023/11/15 09:48:51;;;;;;;3.05;1.02;;;13.30;86.20;;;;;;5051041;28;20025;-66
2023/11/15 09:51:20;;;;;;;2.85;1.27;;;13.20;86.40;;;;;;5041482;28;20037;-66
2023/11/15 09:53:51;;;;;;;4.70;1.67;;;13.20;86.40;;;;;;5051293;28;20033;-66
2023/11/15 09:56:17;;;;;;;3.33;1.05;;;13.20;86.30;;;;;;5044867;28;20078;-66
2023/11/15 09:58:43;;;;;;;3.88;1.58;;;13.20;86.20;;;;;;5046478;28;20084;-66
2023/11/15 10:01:09;;;;;;;9.30;1.13;;;13.20;86.20;;;;;;5047014;28;20060;-65
2023/11/15 10:03:41;;;;;;;3.60;1.48;;;13.10;86.20;;;;;;5047890;28;20136;-65
2023/11/15 10:06:07;;;;;;;2.83;1.50;;;13.10;86.10;;;;;;5051821;28;20391;-65
2023/11/15 10:08:34;;;;;;;2.42;1.13;;;13.10;86.00;;;;;;5042396;28;20127;-65
2023/11/15 10:11:05;;;;;;;2.05;1.38;;;13.20;86.60;;;;;;5043866;28;20025;-66
2023/11/15 10:13:31;;;;;;;1.45;0.93;;;13.30;85.80;;;;;;5036054;28;20078;-65
2023/11/15 10:15:57;;;;;;;3.35;1.15;;;13.40;85.70;;;;;;5035467;28;20036;-65
2023/11/15 10:18:33;;;;;;;2.17;1.25;;;13.40;85.50;;;;;;5039028;28;20026;-65
2023/11/15 10:21:14;;;;;;;2.35;0.95;;;13.40;85.60;;;;;;5035648;28;20106;-65
2023/11/15 10:23:40;;;;;;;7.70;1.80;;;13.40;85.80;;;;;;5039392;28;20033;-65
2023/11/15 10:26:06;;;;;;;2.40;1.20;;;13.40;85.90;;;;;;5048925;28;20033;-65
2023/11/15 10:28:32;;;;;;;2.55;0.98;;;13.50;85.90;;;;;;5054918;28;20743;-65
2023/11/15 10:31:04;;;;;;;2.00;1.33;;;13.50;85.50;;;;;;5048280;28;20087;-65
2023/11/15 10:33:32;;;;;;;1.83;0.95;;;13.50;85.50;;;;;;5051784;28;20106;-65
2023/11/15 10:36:17;;;;;;;4.40;1.38;;;13.60;85.60;;;;;;5052067;28;20475;-65
2023/11/15 10:38:51;;;;;;;7.40;1.55;;;13.70;85.40;;;;;;5054453;28;20029;-65
2023/11/15 10:41:21;;;;;;;3.58;1.10;;;13.80;85.10;;;;;;5057414;28;20028;-65
2023/11/15 10:43:49;;;;;;;5.22;0.90;;;13.80;84.80;;;;;;5047181;28;20396;-62
2023/11/15 10:46:16;;;;;;;4.25;1.13;;;13.70;84.70;;;;;;5060815;28;20066;-62
2023/11/15 10:48:44;;;;;;;3.10;1.02;;;13.80;85.00;;;;;;5047815;28;20112;-62
2023/11/15 10:51:19;;;;;;;5.28;1.35;;;13.80;84.90;;;;;;5049139;28;20025;-63
2023/11/15 10:53:45;;;;;;;1.73;0.70;;;13.80;84.70;;;;;;5051069;28;20025;-62
2023/11/15 10:56:16;;;;;;;3.67;1.38;;;13.90;84.40;;;;;;5055704;28;20071;-62
2023/11/15 10:58:47;;;;;;;6.53;1.05;;;13.90;84.30;;;;;;5052905;28;20051;-62
2023/11/15 11:01:17;;;;;;;1.95;1.10;;;13.90;84.00;;;;;;5054356;28;20405;-62
2023/11/15 11:03:49;;;;;;;4.05;1.02;;;13.90;84.10;;;;;;5047027;28;20110;-62
2023/11/15 11:06:47;;;;;;;5.38;1.83;;;13.80;84.10;;;;;;5046631;28;20056;-61
2023/11/15 11:09:21;;;;;;;2.17;0.88;;;13.80;83.90;;;;;;5051282;28;20031;-65
2023/11/15 11:11:53;;;;;;;2.13;1.17;;;13.80;84.30;;;;;;5051739;28;20025;-65
2023/11/15 11:14:30;;;;;;;4.25;1.48;;;13.90;84.20;;;;;;5050668;28;20033;-65
2023/11/15 11:16:56;;;;;;;1.85;1.30;;;14.10;83.70;;;;;;5057486;28;20037;-65
2023/11/15 11:19:25;;;;;;;4.50;1.48;;;14.10;83.30;;;;;;5045382;28;20021;-66
2023/11/15 11:22:06;;;;;;;4.95;1.90;;;14.20;83.40;;;;;;5046089;28;20408;-65
2023/11/15 11:24:39;;;;;;;3.15;1.20;;;14.20;83.30;;;;;;5048530;28;20037;-65
2023/11/15 11:27:14;;;;;;;1.25;0.98;;;14.20;83.30;;;;;;5051096;28;20033;-65
2023/11/15 11:29:56;;;;;;;4.05;1.70;;;14.20;82.90;;;;;;5052786;28;20077;-66
2023/11/15 11:32:34;;;;;;;2.55;1.52;;;14.10;83.10;;;;;;5045278;28;20102;-65
2023/11/15 11:35:06;;;;;;;1.05;0.98;;;14.20;82.80;;;;;;5052715;28;20070;-66
2023/11/15 11:37:47;;;;;;;2.65;0.80;;;14.80;81.90;;;;;;5047447;28;20026;-66
2023/11/15 11:40:15;;;;;;;2.53;1.33;;;15.30;80.90;;;;;;5043367;28;20033;-62
2023/11/15 11:42:44;;;;;;;7.50;1.52;;;16.30;77.70;;;;;;5045374;28;20451;-63
2023/11/15 11:45:14;;;;;;;5.32;1.95;;;17.20;75.70;;;;;;5047111;28;20104;-63
2023/11/15 11:47:40;;;;;;;3.60;1.23;;;18.40;72.10;;;;;;5044593;28;20066;-63
2023/11/15 11:50:07;;;;;;;2.72;1.02;;;19.70;67.90;;;;;;5055194;28;20029;-63
2023/11/15 11:52:35;;;;;;;3.05;1.05;;;19.50;67.50;;;;;;5053426;28;20037;-62
2023/11/15 11:55:03;;;;;;;1.88;1.25;;;19.30;66.80;;;;;;5045334;28;20496;-62
2023/11/15 11:57:29;;;;;;;1.08;0.90;;;18.70;68.10;;;;;;5048347;28;20025;-65
2023/11/15 12:00:11;;;;;;;1.80;1.38;;;18.00;68.90;;;;;;5053480;28;20110;-66
2023/11/15 12:02:38;;;;;;;1.67;0.68;;;17.40;70.50;;;;;;5052869;28;20087;-65
2023/11/15 12:05:07;;;;;;;3.88;1.25;;;16.70;72.50;;;;;;5048385;28;20047;-66
2023/11/15 12:07:33;;;;;;;2.13;0.60;;;16.30;73.30;;;;;;5053289;28;20044;-62
2023/11/15 12:10:05;;;;;;;4.95;1.15;;;15.90;74.50;;;;;;5054520;28;20029;-62
2023/11/15 12:12:31;;;;;;;1.60;0.68;;;15.50;75.10;;;;;;5050265;28;20025;-62
2023/11/15 12:15:00;;;;;;;4.50;0.90;;;15.20;76.10;;;;;;5047134;28;20065;-62
2023/11/15 12:17:39;;;;;;;1.13;0.98;;;14.80;77.10;;;;;;5055621;28;20087;-62
2023/11/15 12:20:10;;;;;;;5.60;1.40;;;14.60;78.20;;;;;;5052176;28;20025;-62
2023/11/15 12:22:42;;;;;;;1.65;0.88;;;14.40;78.80;;;;;;5049235;28;20029;-62
2023/11/15 12:25:13;;;;;;;3.22;0.75;;;14.30;79.20;;;;;;5048264;28;20041;-62
2023/11/15 12:27:43;;;;;;;7.93;0.80;;;14.20;79.60;;;;;;5040330;28;20170;-62
2023/11/15 12:30:09;;;;;;;5.63;1.25;;;14.10;79.40;;;;;;5047255;28;20039;-63
2023/11/15 12:32:42;;;;;;;1.55;1.02;;;14.00;79.60;;;;;;5047450;28;20075;-62
2023/11/15 12:35:09;;;;;;;7.38;1.08;;;13.80;79.80;;;;;;5055363;28;20029;-62
2023/11/15 12:37:38;;;;;;;1.90;0.63;;;13.80;80.50;;;;;;5056718;28;20084;-62
2023/11/15 12:40:20;;;;;;;2.63;0.95;;;14.20;80.70;;;;;;5044910;28;20033;-65
2023/11/15 12:42:48;;;;;;;8.13;1.02;;;15.10;78.80;;;;;;5047285;28;20075;-65
2023/11/15 12:45:36;;;;;;;1.70;0.55;;;15.70;76.30;;;;;;5051645;28;20395;-65
2023/11/15 12:48:08;;;;;;;8.77;0.70;;;15.60;75.90;;;;;;5048591;28;20434;-62
2023/11/15 12:50:37;;;;;;;3.47;1.55;;;15.20;76.40;;;;;;5039892;28;20020;-62